Terminal Aerodrome Forecast
Issued by NWS

Home | Current Version | Previous Version | Text Only | Print | Product List | Glossary On
Versions: 1 2 3 4 5 6 7 8 9 10 11 12 13
000
FTUS42 TJSJ 292340
TAFJMZ
TAF
TJMZ 292340Z 3000/3024 11015G22KT P6SM VCSH FEW025 BKN060
     FM301200 08015G25KT P6SM SCT030 BKN060
     FM302200 07010G20KT P6SM FEW025 SCT060
      AMD NOT SKED=

USA.gov is the U.S. government's official web portal to all federal, state and local government web resources and services.